sensor_id;sensor_type;location;lat;lon;timestamp;P1;durP1;ratioP1;P2;durP2;ratioP2
13404;SDS011;6773;51.192;7.024;2023-08-08T00:00:46;2.60;;;2.40;;
13404;SDS011;6773;51.192;7.024;2023-08-08T00:03:12;4.00;;;2.63;;
13404;SDS011;6773;51.192;7.024;2023-08-08T00:05:38;5.00;;;2.63;;
13404;SDS011;6773;51.192;7.024;2023-08-08T00:08:04;3.60;;;2.83;;
13404;SDS011;6773;51.192;7.024;2023-08-08T00:10:30;3.43;;;2.67;;
13404;SDS011;6773;51.192;7.024;2023-08-08T00:12:56;5.00;;;2.60;;
13404;SDS011;6773;51.192;7.024;2023-08-08T00:15:22;7.40;;;2.80;;
13404;SDS011;6773;51.192;7.024;2023-08-08T00:17:48;3.93;;;2.63;;
13404;SDS011;6773;51.192;7.024;2023-08-08T00:20:14;2.53;;;2.33;;
13404;SDS011;6773;51.192;7.024;2023-08-08T00:22:40;6.60;;;2.43;;
13404;SDS011;6773;51.192;7.024;2023-08-08T00:25:06;3.10;;;2.80;;
13404;SDS011;6773;51.192;7.024;2023-08-08T00:27:32;2.77;;;2.33;;
13404;SDS011;6773;51.192;7.024;2023-08-08T00:29:58;3.60;;;2.80;;
13404;SDS011;6773;51.192;7.024;2023-08-08T00:32:24;3.10;;;2.73;;
13404;SDS011;6773;51.192;7.024;2023-08-08T00:34:50;3.50;;;2.63;;
13404;SDS011;6773;51.192;7.024;2023-08-08T00:37:16;3.83;;;2.40;;
13404;SDS011;6773;51.192;7.024;2023-08-08T00:39:42;4.83;;;2.77;;
13404;SDS011;6773;51.192;7.024;2023-08-08T00:42:11;5.07;;;2.97;;
13404;SDS011;6773;51.192;7.024;2023-08-08T00:44:37;5.70;;;2.90;;
13404;SDS011;6773;51.192;7.024;2023-08-08T00:47:03;2.80;;;2.60;;
13404;SDS011;6773;51.192;7.024;2023-08-08T00:49:29;6.23;;;2.73;;
13404;SDS011;6773;51.192;7.024;2023-08-08T00:51:55;3.93;;;2.40;;
13404;SDS011;6773;51.192;7.024;2023-08-08T00:54:22;3.40;;;2.40;;
13404;SDS011;6773;51.192;7.024;2023-08-08T00:56:48;4.00;;;2.87;;
13404;SDS011;6773;51.192;7.024;2023-08-08T00:59:14;5.13;;;2.80;;
13404;SDS011;6773;51.192;7.024;2023-08-08T01:01:43;3.20;;;2.67;;
13404;SDS011;6773;51.192;7.024;2023-08-08T01:04:09;5.00;;;3.00;;
13404;SDS011;6773;51.192;7.024;2023-08-08T01:09:04;5.50;;;3.10;;
13404;SDS011;6773;51.192;7.024;2023-08-08T01:11:30;7.93;;;3.00;;
13404;SDS011;6773;51.192;7.024;2023-08-08T01:13:59;6.40;;;2.90;;
13404;SDS011;6773;51.192;7.024;2023-08-08T01:16:26;6.50;;;3.20;;
13404;SDS011;6773;51.192;7.024;2023-08-08T01:18:53;8.40;;;3.10;;
13404;SDS011;6773;51.192;7.024;2023-08-08T01:21:19;6.87;;;3.07;;
13404;SDS011;6773;51.192;7.024;2023-08-08T01:24:11;6.30;;;3.10;;
13404;SDS011;6773;51.192;7.024;2023-08-08T01:26:37;7.87;;;4.37;;
13404;SDS011;6773;51.192;7.024;2023-08-08T01:29:03;5.27;;;3.10;;
13404;SDS011;6773;51.192;7.024;2023-08-08T01:31:29;3.93;;;2.97;;
13404;SDS011;6773;51.192;7.024;2023-08-08T01:33:55;4.77;;;3.40;;
13404;SDS011;6773;51.192;7.024;2023-08-08T01:36:22;4.60;;;3.10;;
13404;SDS011;6773;51.192;7.024;2023-08-08T01:38:53;4.50;;;3.47;;
13404;SDS011;6773;51.192;7.024;2023-08-08T01:41:21;6.57;;;3.27;;
13404;SDS011;6773;51.192;7.024;2023-08-08T01:43:47;4.30;;;3.23;;
13404;SDS011;6773;51.192;7.024;2023-08-08T01:46:13;8.03;;;3.53;;
13404;SDS011;6773;51.192;7.024;2023-08-08T01:48:40;3.67;;;3.10;;
13404;SDS011;6773;51.192;7.024;2023-08-08T01:51:10;5.80;;;3.40;;
13404;SDS011;6773;51.192;7.024;2023-08-08T01:53:36;5.30;;;3.40;;
13404;SDS011;6773;51.192;7.024;2023-08-08T01:56:02;3.97;;;3.30;;
13404;SDS011;6773;51.192;7.024;2023-08-08T01:58:28;4.47;;;3.03;;
13404;SDS011;6773;51.192;7.024;2023-08-08T02:00:54;3.80;;;3.00;;
13404;SDS011;6773;51.192;7.024;2023-08-08T02:03:20;5.43;;;3.50;;
13404;SDS011;6773;51.192;7.024;2023-08-08T02:05:46;6.03;;;3.60;;
13404;SDS011;6773;51.192;7.024;2023-08-08T02:08:12;4.00;;;3.33;;
13404;SDS011;6773;51.192;7.024;2023-08-08T02:10:38;3.67;;;3.37;;
13404;SDS011;6773;51.192;7.024;2023-08-08T02:13:04;4.17;;;3.77;;
13404;SDS011;6773;51.192;7.024;2023-08-08T02:15:29;4.83;;;3.63;;
13404;SDS011;6773;51.192;7.024;2023-08-08T02:17:55;4.00;;;3.37;;
13404;SDS011;6773;51.192;7.024;2023-08-08T02:20:21;7.27;;;3.80;;
13404;SDS011;6773;51.192;7.024;2023-08-08T02:22:47;3.63;;;3.30;;
13404;SDS011;6773;51.192;7.024;2023-08-08T02:25:13;6.53;;;3.60;;
13404;SDS011;6773;51.192;7.024;2023-08-08T02:27:39;5.60;;;3.10;;
13404;SDS011;6773;51.192;7.024;2023-08-08T02:30:05;5.67;;;3.80;;
13404;SDS011;6773;51.192;7.024;2023-08-08T02:32:31;3.53;;;3.23;;
13404;SDS011;6773;51.192;7.024;2023-08-08T02:34:57;6.57;;;3.77;;
13404;SDS011;6773;51.192;7.024;2023-08-08T02:37:23;7.00;;;3.73;;
13404;SDS011;6773;51.192;7.024;2023-08-08T02:39:49;7.63;;;3.67;;
13404;SDS011;6773;51.192;7.024;2023-08-08T02:42:15;5.53;;;3.43;;
13404;SDS011;6773;51.192;7.024;2023-08-08T02:44:41;6.33;;;3.50;;
13404;SDS011;6773;51.192;7.024;2023-08-08T02:47:07;4.50;;;3.27;;
13404;SDS011;6773;51.192;7.024;2023-08-08T02:49:33;4.17;;;3.23;;
13404;SDS011;6773;51.192;7.024;2023-08-08T02:52:00;5.37;;;3.27;;
13404;SDS011;6773;51.192;7.024;2023-08-08T02:54:26;4.63;;;3.23;;
13404;SDS011;6773;51.192;7.024;2023-08-08T02:56:52;3.97;;;2.80;;
13404;SDS011;6773;51.192;7.024;2023-08-08T02:59:18;4.73;;;3.30;;
13404;SDS011;6773;51.192;7.024;2023-08-08T03:01:45;6.37;;;3.63;;
13404;SDS011;6773;51.192;7.024;2023-08-08T03:04:12;3.60;;;3.30;;
13404;SDS011;6773;51.192;7.024;2023-08-08T03:06:38;4.57;;;2.97;;
13404;SDS011;6773;51.192;7.024;2023-08-08T03:09:04;4.20;;;3.27;;
13404;SDS011;6773;51.192;7.024;2023-08-08T03:11:30;4.03;;;3.60;;
13404;SDS011;6773;51.192;7.024;2023-08-08T03:13:56;6.03;;;3.47;;
13404;SDS011;6773;51.192;7.024;2023-08-08T03:16:22;6.47;;;3.20;;
13404;SDS011;6773;51.192;7.024;2023-08-08T03:18:48;5.97;;;3.30;;
13404;SDS011;6773;51.192;7.024;2023-08-08T03:21:14;5.60;;;3.50;;
13404;SDS011;6773;51.192;7.024;2023-08-08T03:23:40;3.50;;;3.20;;
13404;SDS011;6773;51.192;7.024;2023-08-08T03:26:06;4.83;;;3.43;;
13404;SDS011;6773;51.192;7.024;2023-08-08T03:28:32;3.30;;;2.87;;
13404;SDS011;6773;51.192;7.024;2023-08-08T03:30:58;6.33;;;3.67;;
13404;SDS011;6773;51.192;7.024;2023-08-08T03:33:24;4.83;;;3.13;;
13404;SDS011;6773;51.192;7.024;2023-08-08T03:35:50;5.67;;;3.50;;
13404;SDS011;6773;51.192;7.024;2023-08-08T03:38:16;3.67;;;3.00;;
13404;SDS011;6773;51.192;7.024;2023-08-08T03:40:42;4.93;;;3.40;;
13404;SDS011;6773;51.192;7.024;2023-08-08T03:43:08;5.73;;;3.37;;
13404;SDS011;6773;51.192;7.024;2023-08-08T03:45:34;4.17;;;2.90;;
13404;SDS011;6773;51.192;7.024;2023-08-08T03:48:00;4.17;;;2.90;;
13404;SDS011;6773;51.192;7.024;2023-08-08T03:50:26;6.97;;;3.13;;
13404;SDS011;6773;51.192;7.024;2023-08-08T03:52:52;4.23;;;3.20;;
13404;SDS011;6773;51.192;7.024;2023-08-08T03:55:18;4.47;;;3.50;;
13404;SDS011;6773;51.192;7.024;2023-08-08T03:57:44;6.23;;;3.20;;
13404;SDS011;6773;51.192;7.024;2023-08-08T04:00:10;6.07;;;3.37;;
13404;SDS011;6773;51.192;7.024;2023-08-08T04:02:36;6.53;;;3.00;;
13404;SDS011;6773;51.192;7.024;2023-08-08T04:05:02;6.07;;;3.70;;
13404;SDS011;6773;51.192;7.024;2023-08-08T04:07:29;6.90;;;3.33;;
13404;SDS011;6773;51.192;7.024;2023-08-08T04:09:56;6.27;;;3.60;;
13404;SDS011;6773;51.192;7.024;2023-08-08T04:12:22;3.80;;;3.20;;
13404;SDS011;6773;51.192;7.024;2023-08-08T04:14:48;6.33;;;3.47;;
13404;SDS011;6773;51.192;7.024;2023-08-08T04:17:14;5.73;;;3.93;;
13404;SDS011;6773;51.192;7.024;2023-08-08T04:19:40;8.13;;;3.87;;
13404;SDS011;6773;51.192;7.024;2023-08-08T04:22:06;7.23;;;3.60;;
13404;SDS011;6773;51.192;7.024;2023-08-08T04:24:32;9.17;;;4.03;;
13404;SDS011;6773;51.192;7.024;2023-08-08T04:26:58;11.30;;;4.10;;
13404;SDS011;6773;51.192;7.024;2023-08-08T04:29:24;5.03;;;3.47;;
13404;SDS011;6773;51.192;7.024;2023-08-08T04:31:50;7.07;;;3.63;;
13404;SDS011;6773;51.192;7.024;2023-08-08T04:34:15;4.97;;;3.07;;
13404;SDS011;6773;51.192;7.024;2023-08-08T04:36:42;5.97;;;4.30;;
13404;SDS011;6773;51.192;7.024;2023-08-08T04:39:08;5.93;;;3.63;;
13404;SDS011;6773;51.192;7.024;2023-08-08T04:41:33;10.07;;;3.33;;
13404;SDS011;6773;51.192;7.024;2023-08-08T04:43:59;7.17;;;3.70;;
13404;SDS011;6773;51.192;7.024;2023-08-08T04:46:25;4.93;;;3.37;;
13404;SDS011;6773;51.192;7.024;2023-08-08T04:48:51;4.23;;;3.23;;
13404;SDS011;6773;51.192;7.024;2023-08-08T04:51:17;5.77;;;3.67;;
13404;SDS011;6773;51.192;7.024;2023-08-08T04:53:43;7.13;;;3.50;;
13404;SDS011;6773;51.192;7.024;2023-08-08T04:56:09;8.90;;;4.00;;
13404;SDS011;6773;51.192;7.024;2023-08-08T04:58:35;7.87;;;3.77;;
13404;SDS011;6773;51.192;7.024;2023-08-08T05:01:01;5.77;;;3.47;;
13404;SDS011;6773;51.192;7.024;2023-08-08T05:03:27;6.57;;;3.73;;
13404;SDS011;6773;51.192;7.024;2023-08-08T05:05:54;7.73;;;3.73;;
13404;SDS011;6773;51.192;7.024;2023-08-08T05:08:20;8.60;;;4.60;;
13404;SDS011;6773;51.192;7.024;2023-08-08T05:10:46;6.00;;;3.83;;
13404;SDS011;6773;51.192;7.024;2023-08-08T05:13:12;5.70;;;4.00;;
13404;SDS011;6773;51.192;7.024;2023-08-08T05:15:38;7.07;;;4.10;;
13404;SDS011;6773;51.192;7.024;2023-08-08T05:18:04;10.63;;;4.40;;
13404;SDS011;6773;51.192;7.024;2023-08-08T05:20:30;8.73;;;4.73;;
13404;SDS011;6773;51.192;7.024;2023-08-08T05:22:56;7.67;;;4.17;;
13404;SDS011;6773;51.192;7.024;2023-08-08T05:25:22;5.77;;;3.90;;
13404;SDS011;6773;51.192;7.024;2023-08-08T05:27:48;6.97;;;4.23;;
13404;SDS011;6773;51.192;7.024;2023-08-08T05:30:14;6.87;;;4.07;;
13404;SDS011;6773;51.192;7.024;2023-08-08T05:32:40;12.87;;;5.07;;
13404;SDS011;6773;51.192;7.024;2023-08-08T05:35:07;7.63;;;3.87;;
13404;SDS011;6773;51.192;7.024;2023-08-08T05:37:33;8.00;;;4.57;;
13404;SDS011;6773;51.192;7.024;2023-08-08T05:39:59;8.00;;;4.37;;
13404;SDS011;6773;51.192;7.024;2023-08-08T05:42:25;5.00;;;4.57;;
13404;SDS011;6773;51.192;7.024;2023-08-08T05:44:51;10.73;;;5.03;;
13404;SDS011;6773;51.192;7.024;2023-08-08T05:47:16;9.20;;;4.93;;
13404;SDS011;6773;51.192;7.024;2023-08-08T05:49:42;14.30;;;5.47;;
13404;SDS011;6773;51.192;7.024;2023-08-08T05:52:08;11.10;;;4.50;;
13404;SDS011;6773;51.192;7.024;2023-08-08T05:54:35;7.77;;;5.37;;
13404;SDS011;6773;51.192;7.024;2023-08-08T05:57:02;7.77;;;4.97;;
13404;SDS011;6773;51.192;7.024;2023-08-08T05:59:28;8.40;;;4.63;;
13404;SDS011;6773;51.192;7.024;2023-08-08T06:01:54;9.83;;;5.53;;
13404;SDS011;6773;51.192;7.024;2023-08-08T06:04:20;10.37;;;4.77;;
13404;SDS011;6773;51.192;7.024;2023-08-08T06:06:46;9.90;;;4.83;;
13404;SDS011;6773;51.192;7.024;2023-08-08T06:09:14;7.57;;;5.80;;
13404;SDS011;6773;51.192;7.024;2023-08-08T06:11:40;14.67;;;6.13;;
13404;SDS011;6773;51.192;7.024;2023-08-08T06:14:06;9.93;;;5.20;;
13404;SDS011;6773;51.192;7.024;2023-08-08T06:16:32;9.70;;;5.40;;
13404;SDS011;6773;51.192;7.024;2023-08-08T06:18:58;7.50;;;5.00;;
13404;SDS011;6773;51.192;7.024;2023-08-08T06:21:24;11.53;;;5.23;;
13404;SDS011;6773;51.192;7.024;2023-08-08T06:23:50;10.90;;;5.33;;
13404;SDS011;6773;51.192;7.024;2023-08-08T06:26:19;12.43;;;6.10;;
13404;SDS011;6773;51.192;7.024;2023-08-08T06:28:46;9.80;;;5.50;;
13404;SDS011;6773;51.192;7.024;2023-08-08T06:31:12;14.33;;;6.30;;
13404;SDS011;6773;51.192;7.024;2023-08-08T06:33:38;7.93;;;5.80;;
13404;SDS011;6773;51.192;7.024;2023-08-08T06:36:04;10.27;;;5.97;;
13404;SDS011;6773;51.192;7.024;2023-08-08T06:38:30;9.80;;;6.23;;
13404;SDS011;6773;51.192;7.024;2023-08-08T06:41:00;8.60;;;5.50;;
13404;SDS011;6773;51.192;7.024;2023-08-08T06:43:26;8.53;;;6.17;;
13404;SDS011;6773;51.192;7.024;2023-08-08T06:45:52;9.50;;;6.17;;
13404;SDS011;6773;51.192;7.024;2023-08-08T06:48:18;10.73;;;5.50;;
13404;SDS011;6773;51.192;7.024;2023-08-08T06:50:44;12.03;;;5.23;;
13404;SDS011;6773;51.192;7.024;2023-08-08T06:53:10;11.80;;;5.17;;
13404;SDS011;6773;51.192;7.024;2023-08-08T06:55:36;10.70;;;5.30;;
13404;SDS011;6773;51.192;7.024;2023-08-08T06:58:01;10.67;;;5.70;;
13404;SDS011;6773;51.192;7.024;2023-08-08T07:00:28;11.50;;;5.33;;
13404;SDS011;6773;51.192;7.024;2023-08-08T07:02:54;6.87;;;5.10;;
13404;SDS011;6773;51.192;7.024;2023-08-08T07:05:20;11.40;;;5.60;;
13404;SDS011;6773;51.192;7.024;2023-08-08T07:07:48;10.40;;;5.60;;
13404;SDS011;6773;51.192;7.024;2023-08-08T07:10:17;10.97;;;5.00;;
13404;SDS011;6773;51.192;7.024;2023-08-08T07:12:43;6.70;;;5.60;;
13404;SDS011;6773;51.192;7.024;2023-08-08T07:15:09;11.20;;;5.20;;
13404;SDS011;6773;51.192;7.024;2023-08-08T07:17:35;10.40;;;5.53;;
13404;SDS011;6773;51.192;7.024;2023-08-08T07:20:01;13.30;;;5.20;;
13404;SDS011;6773;51.192;7.024;2023-08-08T07:22:27;9.27;;;4.33;;
13404;SDS011;6773;51.192;7.024;2023-08-08T07:24:53;10.10;;;5.00;;
13404;SDS011;6773;51.192;7.024;2023-08-08T07:27:19;8.07;;;4.73;;
13404;SDS011;6773;51.192;7.024;2023-08-08T07:29:45;10.23;;;5.53;;
13404;SDS011;6773;51.192;7.024;2023-08-08T07:32:11;11.37;;;5.33;;
13404;SDS011;6773;51.192;7.024;2023-08-08T07:34:37;9.77;;;5.63;;
13404;SDS011;6773;51.192;7.024;2023-08-08T07:37:03;8.63;;;5.20;;
13404;SDS011;6773;51.192;7.024;2023-08-08T07:39:29;9.27;;;4.93;;
13404;SDS011;6773;51.192;7.024;2023-08-08T07:41:55;8.53;;;5.50;;
13404;SDS011;6773;51.192;7.024;2023-08-08T07:44:22;6.83;;;4.97;;
13404;SDS011;6773;51.192;7.024;2023-08-08T07:46:48;8.93;;;5.27;;
13404;SDS011;6773;51.192;7.024;2023-08-08T07:49:14;11.30;;;5.67;;
13404;SDS011;6773;51.192;7.024;2023-08-08T07:51:41;9.27;;;5.07;;
13404;SDS011;6773;51.192;7.024;2023-08-08T07:54:07;10.77;;;4.70;;
13404;SDS011;6773;51.192;7.024;2023-08-08T07:56:34;10.70;;;5.50;;
13404;SDS011;6773;51.192;7.024;2023-08-08T07:59:00;6.30;;;4.73;;
13404;SDS011;6773;51.192;7.024;2023-08-08T08:01:26;9.53;;;4.40;;
13404;SDS011;6773;51.192;7.024;2023-08-08T08:03:53;7.73;;;5.30;;
13404;SDS011;6773;51.192;7.024;2023-08-08T08:06:19;6.43;;;4.60;;
13404;SDS011;6773;51.192;7.024;2023-08-08T08:08:45;9.77;;;5.17;;
13404;SDS011;6773;51.192;7.024;2023-08-08T08:11:11;8.80;;;4.90;;
13404;SDS011;6773;51.192;7.024;2023-08-08T08:13:38;9.30;;;5.00;;
13404;SDS011;6773;51.192;7.024;2023-08-08T08:16:04;8.03;;;4.27;;
13404;SDS011;6773;51.192;7.024;2023-08-08T08:18:30;8.77;;;4.83;;
13404;SDS011;6773;51.192;7.024;2023-08-08T08:20:58;8.83;;;4.87;;
13404;SDS011;6773;51.192;7.024;2023-08-08T08:23:24;8.63;;;4.73;;
13404;SDS011;6773;51.192;7.024;2023-08-08T08:25:50;7.17;;;4.30;;
13404;SDS011;6773;51.192;7.024;2023-08-08T08:28:16;10.27;;;3.97;;
13404;SDS011;6773;51.192;7.024;2023-08-08T08:30:42;5.37;;;4.27;;
13404;SDS011;6773;51.192;7.024;2023-08-08T08:33:08;7.07;;;4.00;;
13404;SDS011;6773;51.192;7.024;2023-08-08T08:35:35;6.10;;;3.90;;
13404;SDS011;6773;51.192;7.024;2023-08-08T08:38:02;4.87;;;4.10;;
13404;SDS011;6773;51.192;7.024;2023-08-08T08:40:29;7.80;;;4.07;;
13404;SDS011;6773;51.192;7.024;2023-08-08T08:42:57;6.93;;;4.33;;
13404;SDS011;6773;51.192;7.024;2023-08-08T08:45:23;9.07;;;4.30;;
13404;SDS011;6773;51.192;7.024;2023-08-08T08:47:50;8.20;;;3.83;;
13404;SDS011;6773;51.192;7.024;2023-08-08T08:50:20;8.97;;;3.97;;
13404;SDS011;6773;51.192;7.024;2023-08-08T08:52:47;6.40;;;4.17;;
13404;SDS011;6773;51.192;7.024;2023-08-08T08:55:13;11.93;;;4.50;;
13404;SDS011;6773;51.192;7.024;2023-08-08T08:57:39;8.40;;;4.20;;
13404;SDS011;6773;51.192;7.024;2023-08-08T09:00:05;8.43;;;4.07;;
13404;SDS011;6773;51.192;7.024;2023-08-08T09:02:31;9.70;;;4.63;;
13404;SDS011;6773;51.192;7.024;2023-08-08T09:04:57;6.53;;;4.60;;
13404;SDS011;6773;51.192;7.024;2023-08-08T09:07:27;7.77;;;4.90;;
13404;SDS011;6773;51.192;7.024;2023-08-08T09:09:55;8.90;;;4.23;;
13404;SDS011;6773;51.192;7.024;2023-08-08T09:12:21;7.77;;;4.10;;
13404;SDS011;6773;51.192;7.024;2023-08-08T09:14:53;9.30;;;4.10;;
13404;SDS011;6773;51.192;7.024;2023-08-08T09:17:25;9.93;;;4.70;;
13404;SDS011;6773;51.192;7.024;2023-08-08T09:19:52;10.43;;;4.87;;
13404;SDS011;6773;51.192;7.024;2023-08-08T09:22:19;8.97;;;4.10;;
13404;SDS011;6773;51.192;7.024;2023-08-08T09:24:45;8.37;;;4.20;;
13404;SDS011;6773;51.192;7.024;2023-08-08T09:27:11;9.17;;;4.60;;
13404;SDS011;6773;51.192;7.024;2023-08-08T09:29:38;7.80;;;4.73;;
13404;SDS011;6773;51.192;7.024;2023-08-08T09:32:04;9.77;;;4.73;;
13404;SDS011;6773;51.192;7.024;2023-08-08T09:34:31;10.73;;;5.27;;
13404;SDS011;6773;51.192;7.024;2023-08-08T09:36:57;5.63;;;4.43;;
13404;SDS011;6773;51.192;7.024;2023-08-08T09:39:24;10.03;;;4.30;;
13404;SDS011;6773;51.192;7.024;2023-08-08T09:41:50;10.00;;;5.17;;
13404;SDS011;6773;51.192;7.024;2023-08-08T09:44:16;5.87;;;4.40;;
13404;SDS011;6773;51.192;7.024;2023-08-08T09:46:42;10.70;;;4.70;;
13404;SDS011;6773;51.192;7.024;2023-08-08T09:49:09;6.57;;;4.47;;
13404;SDS011;6773;51.192;7.024;2023-08-08T09:51:36;8.30;;;4.37;;
13404;SDS011;6773;51.192;7.024;2023-08-08T09:54:02;11.50;;;4.40;;
13404;SDS011;6773;51.192;7.024;2023-08-08T09:56:31;9.30;;;4.40;;
13404;SDS011;6773;51.192;7.024;2023-08-08T09:58:58;9.23;;;3.90;;
13404;SDS011;6773;51.192;7.024;2023-08-08T10:01:25;7.73;;;4.10;;
13404;SDS011;6773;51.192;7.024;2023-08-08T10:03:51;5.93;;;3.83;;
13404;SDS011;6773;51.192;7.024;2023-08-08T10:06:17;8.10;;;4.10;;
13404;SDS011;6773;51.192;7.024;2023-08-08T10:08:44;6.28;;;3.88;;
13404;SDS011;6773;51.192;7.024;2023-08-08T10:11:10;6.75;;;4.00;;
13404;SDS011;6773;51.192;7.024;2023-08-08T10:13:37;9.20;;;3.80;;
13404;SDS011;6773;51.192;7.024;2023-08-08T10:16:12;6.63;;;4.37;;
13404;SDS011;6773;51.192;7.024;2023-08-08T10:18:41;7.97;;;3.13;;
13404;SDS011;6773;51.192;7.024;2023-08-08T10:21:06;10.90;;;4.47;;
13404;SDS011;6773;51.192;7.024;2023-08-08T10:23:38;7.15;;;3.80;;
13404;SDS011;6773;51.192;7.024;2023-08-08T10:26:05;8.18;;;4.13;;
13404;SDS011;6773;51.192;7.024;2023-08-08T10:28:34;6.55;;;3.90;;
13404;SDS011;6773;51.192;7.024;2023-08-08T10:31:00;8.23;;;4.00;;
13404;SDS011;6773;51.192;7.024;2023-08-08T10:33:39;7.30;;;3.63;;
13404;SDS011;6773;51.192;7.024;2023-08-08T10:36:06;5.07;;;3.58;;
13404;SDS011;6773;51.192;7.024;2023-08-08T10:41:04;8.47;;;4.10;;
13404;SDS011;6773;51.192;7.024;2023-08-08T10:43:30;6.85;;;4.55;;
13404;SDS011;6773;51.192;7.024;2023-08-08T10:46:00;13.30;;;5.50;;
13404;SDS011;6773;51.192;7.024;2023-08-08T10:48:27;9.90;;;5.40;;
13404;SDS011;6773;51.192;7.024;2023-08-08T10:50:59;9.07;;;6.07;;
13404;SDS011;6773;51.192;7.024;2023-08-08T10:53:26;9.57;;;6.20;;
13404;SDS011;6773;51.192;7.024;2023-08-08T10:56:03;8.53;;;5.30;;
13404;SDS011;6773;51.192;7.024;2023-08-08T10:58:37;7.80;;;5.40;;
13404;SDS011;6773;51.192;7.024;2023-08-08T11:01:03;6.33;;;5.00;;
13404;SDS011;6773;51.192;7.024;2023-08-08T11:03:37;8.47;;;5.20;;
13404;SDS011;6773;51.192;7.024;2023-08-08T11:06:04;8.73;;;5.67;;
13404;SDS011;6773;51.192;7.024;2023-08-08T11:08:34;9.90;;;5.10;;
13404;SDS011;6773;51.192;7.024;2023-08-08T11:11:03;7.07;;;5.00;;
13404;SDS011;6773;51.192;7.024;2023-08-08T11:13:29;5.20;;;4.70;;
13404;SDS011;6773;51.192;7.024;2023-08-08T11:15:55;8.63;;;4.53;;
13404;SDS011;6773;51.192;7.024;2023-08-08T11:18:21;5.83;;;4.53;;
13404;SDS011;6773;51.192;7.024;2023-08-08T11:20:47;6.47;;;4.07;;
13404;SDS011;6773;51.192;7.024;2023-08-08T11:23:14;6.25;;;4.60;;
13404;SDS011;6773;51.192;7.024;2023-08-08T11:25:40;6.45;;;4.35;;
13404;SDS011;6773;51.192;7.024;2023-08-08T11:28:07;5.97;;;3.87;;
13404;SDS011;6773;51.192;7.024;2023-08-08T11:30:34;7.25;;;3.90;;
13404;SDS011;6773;51.192;7.024;2023-08-08T11:33:02;6.53;;;3.90;;
13404;SDS011;6773;51.192;7.024;2023-08-08T11:35:28;7.70;;;4.00;;
13404;SDS011;6773;51.192;7.024;2023-08-08T11:37:54;8.52;;;3.30;;
13404;SDS011;6773;51.192;7.024;2023-08-08T11:40:21;5.53;;;4.23;;
13404;SDS011;6773;51.192;7.024;2023-08-08T11:42:49;4.78;;;3.90;;
13404;SDS011;6773;51.192;7.024;2023-08-08T11:45:16;6.65;;;3.47;;
13404;SDS011;6773;51.192;7.024;2023-08-08T11:47:42;7.00;;;3.20;;
13404;SDS011;6773;51.192;7.024;2023-08-08T11:50:08;6.75;;;3.58;;
13404;SDS011;6773;51.192;7.024;2023-08-08T11:52:36;7.68;;;3.75;;
13404;SDS011;6773;51.192;7.024;2023-08-08T11:55:06;4.30;;;3.23;;
13404;SDS011;6773;51.192;7.024;2023-08-08T11:57:36;6.17;;;3.40;;
13404;SDS011;6773;51.192;7.024;2023-08-08T12:00:03;4.43;;;2.80;;
13404;SDS011;6773;51.192;7.024;2023-08-08T12:02:29;5.70;;;3.30;;
13404;SDS011;6773;51.192;7.024;2023-08-08T12:04:54;4.23;;;3.17;;
13404;SDS011;6773;51.192;7.024;2023-08-08T12:07:21;6.47;;;2.92;;
13404;SDS011;6773;51.192;7.024;2023-08-08T12:09:48;7.00;;;3.30;;
13404;SDS011;6773;51.192;7.024;2023-08-08T12:12:14;4.23;;;3.07;;
13404;SDS011;6773;51.192;7.024;2023-08-08T12:14:42;3.97;;;2.93;;
13404;SDS011;6773;51.192;7.024;2023-08-08T12:17:09;5.80;;;3.10;;
13404;SDS011;6773;51.192;7.024;2023-08-08T12:19:35;5.67;;;3.10;;
13404;SDS011;6773;51.192;7.024;2023-08-08T12:22:01;5.10;;;2.70;;
13404;SDS011;6773;51.192;7.024;2023-08-08T12:24:27;5.90;;;3.10;;
13404;SDS011;6773;51.192;7.024;2023-08-08T12:26:53;5.77;;;2.80;;
13404;SDS011;6773;51.192;7.024;2023-08-08T12:29:19;3.87;;;2.63;;
13404;SDS011;6773;51.192;7.024;2023-08-08T12:31:45;4.27;;;3.03;;
13404;SDS011;6773;51.192;7.024;2023-08-08T12:34:11;4.27;;;3.27;;
13404;SDS011;6773;51.192;7.024;2023-08-08T12:36:37;5.67;;;2.67;;
13404;SDS011;6773;51.192;7.024;2023-08-08T12:39:04;4.33;;;2.90;;
13404;SDS011;6773;51.192;7.024;2023-08-08T12:41:30;4.63;;;3.20;;
13404;SDS011;6773;51.192;7.024;2023-08-08T12:43:56;3.50;;;2.83;;
13404;SDS011;6773;51.192;7.024;2023-08-08T12:46:22;5.40;;;3.10;;
13404;SDS011;6773;51.192;7.024;2023-08-08T12:48:49;3.30;;;3.00;;
13404;SDS011;6773;51.192;7.024;2023-08-08T12:51:14;4.20;;;2.80;;
13404;SDS011;6773;51.192;7.024;2023-08-08T12:53:42;4.17;;;2.80;;
13404;SDS011;6773;51.192;7.024;2023-08-08T12:56:08;5.50;;;2.90;;
13404;SDS011;6773;51.192;7.024;2023-08-08T12:58:33;5.93;;;3.07;;
13404;SDS011;6773;51.192;7.024;2023-08-08T13:00:59;6.43;;;2.73;;
13404;SDS011;6773;51.192;7.024;2023-08-08T13:03:25;5.77;;;2.97;;
13404;SDS011;6773;51.192;7.024;2023-08-08T13:05:51;2.93;;;2.43;;
13404;SDS011;6773;51.192;7.024;2023-08-08T13:08:17;5.00;;;2.50;;
13404;SDS011;6773;51.192;7.024;2023-08-08T13:10:43;3.83;;;2.33;;
13404;SDS011;6773;51.192;7.024;2023-08-08T13:13:10;3.90;;;2.53;;
13404;SDS011;6773;51.192;7.024;2023-08-08T13:15:36;5.10;;;2.92;;
13404;SDS011;6773;51.192;7.024;2023-08-08T13:18:02;4.88;;;3.35;;
13404;SDS011;6773;51.192;7.024;2023-08-08T13:20:28;4.47;;;3.17;;
13404;SDS011;6773;51.192;7.024;2023-08-08T13:22:53;4.97;;;3.00;;
13404;SDS011;6773;51.192;7.024;2023-08-08T13:25:19;3.55;;;2.75;;
13404;SDS011;6773;51.192;7.024;2023-08-08T13:27:45;5.00;;;3.30;;
13404;SDS011;6773;51.192;7.024;2023-08-08T13:30:12;4.38;;;3.10;;
13404;SDS011;6773;51.192;7.024;2023-08-08T13:32:40;5.88;;;3.25;;
13404;SDS011;6773;51.192;7.024;2023-08-08T13:35:06;5.40;;;3.13;;
13404;SDS011;6773;51.192;7.024;2023-08-08T13:37:32;7.28;;;3.35;;
13404;SDS011;6773;51.192;7.024;2023-08-08T13:39:57;6.15;;;3.13;;
13404;SDS011;6773;51.192;7.024;2023-08-08T13:42:23;5.43;;;3.20;;
13404;SDS011;6773;51.192;7.024;2023-08-08T13:44:49;4.95;;;3.35;;
13404;SDS011;6773;51.192;7.024;2023-08-08T13:47:15;5.32;;;3.15;;
13404;SDS011;6773;51.192;7.024;2023-08-08T13:49:41;8.25;;;3.30;;
13404;SDS011;6773;51.192;7.024;2023-08-08T13:52:08;5.05;;;3.25;;
13404;SDS011;6773;51.192;7.024;2023-08-08T13:54:34;3.40;;;3.10;;
13404;SDS011;6773;51.192;7.024;2023-08-08T13:57:00;6.55;;;3.30;;
13404;SDS011;6773;51.192;7.024;2023-08-08T13:59:25;5.22;;;3.45;;
13404;SDS011;6773;51.192;7.024;2023-08-08T14:01:52;4.15;;;3.05;;
13404;SDS011;6773;51.192;7.024;2023-08-08T14:04:18;6.03;;;3.40;;
13404;SDS011;6773;51.192;7.024;2023-08-08T14:06:44;5.65;;;3.90;;
13404;SDS011;6773;51.192;7.024;2023-08-08T14:09:10;8.32;;;3.30;;
13404;SDS011;6773;51.192;7.024;2023-08-08T14:11:36;4.80;;;3.22;;
13404;SDS011;6773;51.192;7.024;2023-08-08T14:14:02;6.15;;;3.08;;
13404;SDS011;6773;51.192;7.024;2023-08-08T14:16:28;6.72;;;3.55;;
13404;SDS011;6773;51.192;7.024;2023-08-08T14:18:54;6.13;;;3.22;;
13404;SDS011;6773;51.192;7.024;2023-08-08T14:21:20;7.90;;;3.90;;
13404;SDS011;6773;51.192;7.024;2023-08-08T14:23:46;5.50;;;2.90;;
13404;SDS011;6773;51.192;7.024;2023-08-08T14:26:12;6.65;;;3.25;;
13404;SDS011;6773;51.192;7.024;2023-08-08T14:28:38;6.28;;;2.72;;
13404;SDS011;6773;51.192;7.024;2023-08-08T14:31:04;3.47;;;2.67;;
13404;SDS011;6773;51.192;7.024;2023-08-08T14:33:31;6.68;;;2.60;;
13404;SDS011;6773;51.192;7.024;2023-08-08T14:35:57;4.20;;;2.58;;
13404;SDS011;6773;51.192;7.024;2023-08-08T14:38:23;4.72;;;2.45;;
13404;SDS011;6773;51.192;7.024;2023-08-08T14:40:50;2.92;;;2.40;;
13404;SDS011;6773;51.192;7.024;2023-08-08T14:43:18;7.40;;;2.67;;
13404;SDS011;6773;51.192;7.024;2023-08-08T14:45:43;4.50;;;2.28;;
13404;SDS011;6773;51.192;7.024;2023-08-08T14:48:10;4.65;;;2.65;;
13404;SDS011;6773;51.192;7.024;2023-08-08T14:50:36;3.72;;;2.67;;
13404;SDS011;6773;51.192;7.024;2023-08-08T14:53:03;3.72;;;2.40;;
13404;SDS011;6773;51.192;7.024;2023-08-08T14:55:29;2.97;;;2.50;;
13404;SDS011;6773;51.192;7.024;2023-08-08T14:57:55;5.63;;;2.58;;
13404;SDS011;6773;51.192;7.024;2023-08-08T15:00:21;5.75;;;2.35;;